sensor_id;sensor_type;location;lat;lon;timestamp;P1;durP1;ratioP1;P2;durP2;ratioP2
52043;SDS011;38053;53.100;6.078;2023-07-13T09:20:19;12.93;;;2.22;;
52043;SDS011;38053;53.100;6.078;2023-07-13T09:22:50;4.63;;;2.05;;
52043;SDS011;38053;53.100;6.078;2023-07-13T09:27:48;3.58;;;1.67;;
52043;SDS011;38053;53.100;6.078;2023-07-13T09:32:44;3.05;;;1.27;;
52043;SDS011;38053;53.100;6.078;2023-07-13T09:35:16;5.57;;;1.40;;
52043;SDS011;38053;53.100;6.078;2023-07-13T09:37:47;6.30;;;1.83;;
52043;SDS011;38053;53.100;6.078;2023-07-13T09:40:17;4.50;;;1.45;;
52043;SDS011;38053;53.100;6.078;2023-07-13T09:42:50;8.32;;;2.22;;
52043;SDS011;38053;53.100;6.078;2023-07-13T09:45:26;6.88;;;1.80;;
52043;SDS011;38053;53.100;6.078;2023-07-13T09:47:58;6.85;;;2.33;;
52043;SDS011;38053;53.100;6.078;2023-07-13T09:50:28;4.95;;;1.45;;
52043;SDS011;38053;53.100;6.078;2023-07-13T09:52:54;7.50;;;1.85;;
52043;SDS011;38053;53.100;6.078;2023-07-13T09:58:10;5.35;;;1.30;;
52043;SDS011;38053;53.100;6.078;2023-07-13T10:00:43;6.40;;;1.67;;
52043;SDS011;38053;53.100;6.078;2023-07-13T10:03:37;5.05;;;1.88;;
52043;SDS011;38053;53.100;6.078;2023-07-13T10:06:13;5.95;;;1.65;;
52043;SDS011;38053;53.100;6.078;2023-07-13T10:08:41;6.90;;;2.67;;
52043;SDS011;38053;53.100;6.078;2023-07-13T10:13:59;6.07;;;1.67;;
52043;SDS011;38053;53.100;6.078;2023-07-13T10:16:30;3.88;;;1.52;;
52043;SDS011;38053;53.100;6.078;2023-07-13T10:18:58;5.50;;;1.50;;
52043;SDS011;38053;53.100;6.078;2023-07-13T10:21:38;5.22;;;1.52;;
52043;SDS011;38053;53.100;6.078;2023-07-13T10:24:17;4.45;;;1.52;;
52043;SDS011;38053;53.100;6.078;2023-07-13T10:27:33;6.18;;;1.50;;
52043;SDS011;38053;53.100;6.078;2023-07-13T10:29:39;5.85;;;1.40;;
52043;SDS011;38053;53.100;6.078;2023-07-13T10:32:18;4.75;;;1.52;;
52043;SDS011;38053;53.100;6.078;2023-07-13T10:34:45;6.68;;;1.73;;
52043;SDS011;38053;53.100;6.078;2023-07-13T10:37:20;6.40;;;1.80;;
52043;SDS011;38053;53.100;6.078;2023-07-13T10:39:50;12.60;;;1.73;;
52043;SDS011;38053;53.100;6.078;2023-07-13T10:42:38;10.60;;;3.08;;
52043;SDS011;38053;53.100;6.078;2023-07-13T10:45:12;10.90;;;2.10;;
52043;SDS011;38053;53.100;6.078;2023-07-13T10:47:40;3.25;;;1.20;;
52043;SDS011;38053;53.100;6.078;2023-07-13T10:50:08;7.35;;;2.83;;
52043;SDS011;38053;53.100;6.078;2023-07-13T10:52:50;7.10;;;2.15;;
52043;SDS011;38053;53.100;6.078;2023-07-13T10:58:13;10.13;;;2.08;;
52043;SDS011;38053;53.100;6.078;2023-07-13T11:07:23;4.57;;;1.63;;
52043;SDS011;38053;53.100;6.078;2023-07-13T11:09:54;7.15;;;1.98;;
52043;SDS011;38053;53.100;6.078;2023-07-13T11:28:41;10.18;;;2.67;;
52043;SDS011;38053;53.100;6.078;2023-07-13T11:30:44;5.53;;;2.08;;
52043;SDS011;38053;53.100;6.078;2023-07-13T11:33:25;5.50;;;2.10;;
52043;SDS011;38053;53.100;6.078;2023-07-13T11:38:42;6.60;;;1.75;;
52043;SDS011;38053;53.100;6.078;2023-07-13T11:41:20;9.65;;;2.15;;
52043;SDS011;38053;53.100;6.078;2023-07-13T11:43:50;5.72;;;2.15;;
52043;SDS011;38053;53.100;6.078;2023-07-13T11:46:23;5.35;;;2.00;;
52043;SDS011;38053;53.100;6.078;2023-07-13T11:48:51;7.20;;;2.25;;
52043;SDS011;38053;53.100;6.078;2023-07-13T11:51:31;6.70;;;1.98;;
52043;SDS011;38053;53.100;6.078;2023-07-13T11:54:05;6.75;;;2.00;;
52043;SDS011;38053;53.100;6.078;2023-07-13T11:56:42;16.83;;;3.50;;
52043;SDS011;38053;53.100;6.078;2023-07-13T11:59:10;6.53;;;1.70;;
52043;SDS011;38053;53.100;6.078;2023-07-13T12:01:43;6.53;;;1.60;;
52043;SDS011;38053;53.100;6.078;2023-07-13T12:04:27;4.65;;;1.48;;
52043;SDS011;38053;53.100;6.078;2023-07-13T12:07:17;6.10;;;1.65;;
52043;SDS011;38053;53.100;6.078;2023-07-13T12:09:44;4.45;;;1.60;;
52043;SDS011;38053;53.100;6.078;2023-07-13T12:12:13;8.38;;;1.85;;
52043;SDS011;38053;53.100;6.078;2023-07-13T12:14:43;9.10;;;1.55;;
52043;SDS011;38053;53.100;6.078;2023-07-13T12:17:18;7.38;;;2.30;;
52043;SDS011;38053;53.100;6.078;2023-07-13T12:19:46;7.10;;;2.22;;
52043;SDS011;38053;53.100;6.078;2023-07-13T12:22:13;4.60;;;1.63;;
52043;SDS011;38053;53.100;6.078;2023-07-13T12:24:41;3.45;;;1.27;;
52043;SDS011;38053;53.100;6.078;2023-07-13T12:27:19;4.88;;;1.65;;
52043;SDS011;38053;53.100;6.078;2023-07-13T12:30:02;3.60;;;1.42;;
52043;SDS011;38053;53.100;6.078;2023-07-13T12:32:30;6.45;;;2.45;;
52043;SDS011;38053;53.100;6.078;2023-07-13T12:35:16;13.80;;;2.30;;
52043;SDS011;38053;53.100;6.078;2023-07-13T12:37:44;6.63;;;2.10;;
52043;SDS011;38053;53.100;6.078;2023-07-13T12:40:19;8.90;;;2.00;;
52043;SDS011;38053;53.100;6.078;2023-07-13T12:42:47;6.40;;;2.33;;
52043;SDS011;38053;53.100;6.078;2023-07-13T12:47:50;4.45;;;1.58;;
52043;SDS011;38053;53.100;6.078;2023-07-13T12:50:29;5.65;;;1.85;;
52043;SDS011;38053;53.100;6.078;2023-07-13T12:53:02;6.07;;;2.28;;
52043;SDS011;38053;53.100;6.078;2023-07-13T12:55:39;5.78;;;2.38;;
52043;SDS011;38053;53.100;6.078;2023-07-13T12:58:27;7.45;;;2.10;;
52043;SDS011;38053;53.100;6.078;2023-07-13T13:00:59;13.90;;;2.40;;
52043;SDS011;38053;53.100;6.078;2023-07-13T13:03:32;4.90;;;1.95;;
52043;SDS011;38053;53.100;6.078;2023-07-13T13:08:45;6.32;;;2.20;;
52043;SDS011;38053;53.100;6.078;2023-07-13T13:11:14;6.93;;;2.30;;
52043;SDS011;38053;53.100;6.078;2023-07-13T13:13:43;5.25;;;1.85;;
52043;SDS011;38053;53.100;6.078;2023-07-13T13:16:11;6.82;;;2.30;;
52043;SDS011;38053;53.100;6.078;2023-07-13T13:18:49;6.85;;;1.70;;
52043;SDS011;38053;53.100;6.078;2023-07-13T13:21:16;5.50;;;1.80;;
52043;SDS011;38053;53.100;6.078;2023-07-13T13:23:44;9.05;;;1.90;;
52043;SDS011;38053;53.100;6.078;2023-07-13T13:26:11;5.68;;;1.50;;
52043;SDS011;38053;53.100;6.078;2023-07-13T13:28:41;6.40;;;1.67;;
52043;SDS011;38053;53.100;6.078;2023-07-13T13:31:09;3.67;;;1.50;;
52043;SDS011;38053;53.100;6.078;2023-07-13T13:33:39;7.07;;;2.45;;
52043;SDS011;38053;53.100;6.078;2023-07-13T13:36:20;18.75;;;2.05;;
52043;SDS011;38053;53.100;6.078;2023-07-13T13:38:48;5.20;;;2.10;;
52043;SDS011;38053;53.100;6.078;2023-07-13T13:41:15;6.95;;;2.38;;
52043;SDS011;38053;53.100;6.078;2023-07-13T13:43:42;5.43;;;1.70;;
52043;SDS011;38053;53.100;6.078;2023-07-13T13:46:20;8.07;;;1.80;;
52043;SDS011;38053;53.100;6.078;2023-07-13T13:48:50;4.53;;;2.03;;
52043;SDS011;38053;53.100;6.078;2023-07-13T13:51:17;7.00;;;1.98;;
52043;SDS011;38053;53.100;6.078;2023-07-13T13:53:45;7.47;;;1.85;;
52043;SDS011;38053;53.100;6.078;2023-07-13T13:56:11;9.75;;;2.20;;
52043;SDS011;38053;53.100;6.078;2023-07-13T13:58:38;6.20;;;2.15;;
52043;SDS011;38053;53.100;6.078;2023-07-13T14:01:04;7.10;;;2.72;;
52043;SDS011;38053;53.100;6.078;2023-07-13T14:03:37;6.93;;;1.92;;
52043;SDS011;38053;53.100;6.078;2023-07-13T14:06:03;8.20;;;2.35;;
52043;SDS011;38053;53.100;6.078;2023-07-13T14:08:28;10.00;;;3.15;;
52043;SDS011;38053;53.100;6.078;2023-07-13T14:10:55;7.93;;;2.88;;
52043;SDS011;38053;53.100;6.078;2023-07-13T14:13:26;6.30;;;2.20;;
52043;SDS011;38053;53.100;6.078;2023-07-13T14:15:54;6.38;;;1.85;;
52043;SDS011;38053;53.100;6.078;2023-07-13T14:18:20;7.93;;;2.83;;
52043;SDS011;38053;53.100;6.078;2023-07-13T14:20:46;7.60;;;1.95;;
52043;SDS011;38053;53.100;6.078;2023-07-13T14:23:14;7.00;;;2.50;;
52043;SDS011;38053;53.100;6.078;2023-07-13T14:25:40;7.38;;;2.63;;
52043;SDS011;38053;53.100;6.078;2023-07-13T14:28:13;8.10;;;2.00;;
52043;SDS011;38053;53.100;6.078;2023-07-13T14:30:44;9.23;;;2.00;;
52043;SDS011;38053;53.100;6.078;2023-07-13T14:33:10;7.97;;;2.25;;
52043;SDS011;38053;53.100;6.078;2023-07-13T14:35:36;10.85;;;2.78;;
52043;SDS011;38053;53.100;6.078;2023-07-13T14:38:03;6.47;;;2.67;;
52043;SDS011;38053;53.100;6.078;2023-07-13T14:40:30;7.78;;;2.95;;
52043;SDS011;38053;53.100;6.078;2023-07-13T14:42:57;8.90;;;2.55;;
52043;SDS011;38053;53.100;6.078;2023-07-13T14:45:23;9.00;;;2.45;;
52043;SDS011;38053;53.100;6.078;2023-07-13T14:47:50;6.65;;;2.15;;
52043;SDS011;38053;53.100;6.078;2023-07-13T14:50:21;10.93;;;2.25;;
52043;SDS011;38053;53.100;6.078;2023-07-13T14:52:54;8.23;;;2.00;;
52043;SDS011;38053;53.100;6.078;2023-07-13T14:55:19;8.35;;;2.97;;
52043;SDS011;38053;53.100;6.078;2023-07-13T14:57:48;6.90;;;3.05;;
52043;SDS011;38053;53.100;6.078;2023-07-13T15:00:15;7.28;;;2.45;;
52043;SDS011;38053;53.100;6.078;2023-07-13T15:02:48;8.30;;;2.58;;
52043;SDS011;38053;53.100;6.078;2023-07-13T15:05:20;8.85;;;2.08;;
52043;SDS011;38053;53.100;6.078;2023-07-13T15:07:51;8.70;;;2.63;;
52043;SDS011;38053;53.100;6.078;2023-07-13T15:10:22;6.43;;;2.08;;
52043;SDS011;38053;53.100;6.078;2023-07-13T15:12:53;7.68;;;2.60;;
52043;SDS011;38053;53.100;6.078;2023-07-13T15:15:22;10.35;;;2.88;;
52043;SDS011;38053;53.100;6.078;2023-07-13T15:17:48;8.55;;;2.72;;
52043;SDS011;38053;53.100;6.078;2023-07-13T15:20:32;7.05;;;2.13;;
52043;SDS011;38053;53.100;6.078;2023-07-13T15:23:01;9.15;;;2.20;;
52043;SDS011;38053;53.100;6.078;2023-07-13T15:25:28;9.65;;;2.38;;
52043;SDS011;38053;53.100;6.078;2023-07-13T15:27:56;9.02;;;2.17;;
52043;SDS011;38053;53.100;6.078;2023-07-13T15:30:23;6.13;;;2.72;;
52043;SDS011;38053;53.100;6.078;2023-07-13T15:32:52;8.05;;;2.60;;
52043;SDS011;38053;53.100;6.078;2023-07-13T15:35:21;11.15;;;2.58;;
52043;SDS011;38053;53.100;6.078;2023-07-13T15:37:50;11.75;;;3.63;;
52043;SDS011;38053;53.100;6.078;2023-07-13T15:40:16;8.50;;;2.92;;
52043;SDS011;38053;53.100;6.078;2023-07-13T15:42:42;6.70;;;2.63;;
52043;SDS011;38053;53.100;6.078;2023-07-13T15:45:19;6.03;;;2.10;;
52043;SDS011;38053;53.100;6.078;2023-07-13T15:47:46;6.95;;;2.53;;
52043;SDS011;38053;53.100;6.078;2023-07-13T15:50:16;7.00;;;1.90;;
52043;SDS011;38053;53.100;6.078;2023-07-13T15:52:44;6.75;;;1.85;;
52043;SDS011;38053;53.100;6.078;2023-07-13T15:55:13;6.25;;;2.80;;
52043;SDS011;38053;53.100;6.078;2023-07-13T15:57:43;9.75;;;2.60;;
52043;SDS011;38053;53.100;6.078;2023-07-13T16:00:22;11.68;;;2.53;;
52043;SDS011;38053;53.100;6.078;2023-07-13T16:02:51;7.43;;;2.38;;
52043;SDS011;38053;53.100;6.078;2023-07-13T16:05:19;6.80;;;1.85;;
52043;SDS011;38053;53.100;6.078;2023-07-13T16:07:48;7.93;;;2.10;;
52043;SDS011;38053;53.100;6.078;2023-07-13T16:10:17;8.18;;;2.30;;
52043;SDS011;38053;53.100;6.078;2023-07-13T16:12:47;6.18;;;1.85;;
52043;SDS011;38053;53.100;6.078;2023-07-13T16:15:17;10.15;;;2.15;;
52043;SDS011;38053;53.100;6.078;2023-07-13T16:17:45;9.25;;;2.30;;
52043;SDS011;38053;53.100;6.078;2023-07-13T16:20:12;6.03;;;2.08;;
52043;SDS011;38053;53.100;6.078;2023-07-13T16:22:39;6.30;;;2.17;;
52043;SDS011;38053;53.100;6.078;2023-07-13T16:25:13;6.45;;;2.22;;
52043;SDS011;38053;53.100;6.078;2023-07-13T16:27:50;7.03;;;2.17;;
52043;SDS011;38053;53.100;6.078;2023-07-13T16:30:19;10.30;;;2.30;;
52043;SDS011;38053;53.100;6.078;2023-07-13T16:32:52;7.82;;;2.83;;
52043;SDS011;38053;53.100;6.078;2023-07-13T16:35:18;7.10;;;1.98;;
52043;SDS011;38053;53.100;6.078;2023-07-13T16:37:49;6.40;;;1.80;;
52043;SDS011;38053;53.100;6.078;2023-07-13T16:40:23;7.68;;;2.40;;
52043;SDS011;38053;53.100;6.078;2023-07-13T16:42:52;9.52;;;2.30;;
52043;SDS011;38053;53.100;6.078;2023-07-13T16:45:23;7.45;;;2.08;;
52043;SDS011;38053;53.100;6.078;2023-07-13T16:47:51;5.43;;;1.60;;
52043;SDS011;38053;53.100;6.078;2023-07-13T16:50:22;8.40;;;2.20;;
52043;SDS011;38053;53.100;6.078;2023-07-13T16:52:49;5.53;;;2.33;;
52043;SDS011;38053;53.100;6.078;2023-07-13T16:55:17;8.73;;;2.67;;
52043;SDS011;38053;53.100;6.078;2023-07-13T16:57:52;5.65;;;2.05;;
52043;SDS011;38053;53.100;6.078;2023-07-13T17:00:31;4.85;;;2.45;;
52043;SDS011;38053;53.100;6.078;2023-07-13T17:03:01;9.02;;;3.33;;
52043;SDS011;38053;53.100;6.078;2023-07-13T17:05:40;10.85;;;2.55;;
52043;SDS011;38053;53.100;6.078;2023-07-13T17:08:18;8.35;;;2.30;;
52043;SDS011;38053;53.100;6.078;2023-07-13T17:10:46;6.45;;;2.22;;
52043;SDS011;38053;53.100;6.078;2023-07-13T17:13:14;14.90;;;2.63;;
52043;SDS011;38053;53.100;6.078;2023-07-13T17:15:42;5.22;;;2.33;;
52043;SDS011;38053;53.100;6.078;2023-07-13T17:18:13;5.25;;;2.15;;
52043;SDS011;38053;53.100;6.078;2023-07-13T17:20:40;6.78;;;2.67;;
52043;SDS011;38053;53.100;6.078;2023-07-13T17:23:26;5.72;;;2.33;;
52043;SDS011;38053;53.100;6.078;2023-07-13T17:25:52;7.03;;;2.33;;
52043;SDS011;38053;53.100;6.078;2023-07-13T17:28:19;6.80;;;1.95;;
52043;SDS011;38053;53.100;6.078;2023-07-13T17:30:46;7.40;;;2.38;;
52043;SDS011;38053;53.100;6.078;2023-07-13T17:33:33;6.93;;;2.60;;
52043;SDS011;38053;53.100;6.078;2023-07-13T17:36:04;7.43;;;2.15;;
52043;SDS011;38053;53.100;6.078;2023-07-13T17:38:38;7.32;;;2.70;;
52043;SDS011;38053;53.100;6.078;2023-07-13T17:41:08;4.82;;;1.80;;
52043;SDS011;38053;53.100;6.078;2023-07-13T17:43:39;9.40;;;2.53;;
52043;SDS011;38053;53.100;6.078;2023-07-13T17:46:13;6.70;;;2.13;;
52043;SDS011;38053;53.100;6.078;2023-07-13T17:48:42;9.73;;;2.45;;
52043;SDS011;38053;53.100;6.078;2023-07-13T17:51:09;5.60;;;2.13;;
52043;SDS011;38053;53.100;6.078;2023-07-13T17:53:38;6.88;;;2.40;;
52043;SDS011;38053;53.100;6.078;2023-07-13T17:56:08;6.63;;;2.42;;
52043;SDS011;38053;53.100;6.078;2023-07-13T17:58:38;5.38;;;2.42;;
52043;SDS011;38053;53.100;6.078;2023-07-13T18:11:33;7.68;;;2.58;;
52043;SDS011;38053;53.100;6.078;2023-07-13T18:13:59;8.48;;;3.08;;
52043;SDS011;38053;53.100;6.078;2023-07-13T18:16:25;6.97;;;2.58;;
52043;SDS011;38053;53.100;6.078;2023-07-13T18:18:54;8.90;;;2.38;;
52043;SDS011;38053;53.100;6.078;2023-07-13T18:21:27;6.55;;;2.65;;
52043;SDS011;38053;53.100;6.078;2023-07-13T18:23:56;11.05;;;2.45;;
52043;SDS011;38053;53.100;6.078;2023-07-13T18:26:23;8.15;;;2.30;;
52043;SDS011;38053;53.100;6.078;2023-07-13T18:28:50;9.95;;;2.53;;
52043;SDS011;38053;53.100;6.078;2023-07-13T18:31:18;7.95;;;2.63;;
52043;SDS011;38053;53.100;6.078;2023-07-13T18:33:52;8.52;;;2.88;;
52043;SDS011;38053;53.100;6.078;2023-07-13T18:36:20;10.18;;;3.42;;
52043;SDS011;38053;53.100;6.078;2023-07-13T18:38:51;8.50;;;3.42;;
52043;SDS011;38053;53.100;6.078;2023-07-13T18:41:20;5.65;;;2.65;;
52043;SDS011;38053;53.100;6.078;2023-07-13T18:43:51;7.53;;;3.85;;
52043;SDS011;38053;53.100;6.078;2023-07-13T18:46:21;9.30;;;3.33;;
52043;SDS011;38053;53.100;6.078;2023-07-13T18:48:50;10.63;;;3.13;;
52043;SDS011;38053;53.100;6.078;2023-07-13T18:51:17;11.07;;;4.28;;
52043;SDS011;38053;53.100;6.078;2023-07-13T18:53:44;10.70;;;3.15;;
52043;SDS011;38053;53.100;6.078;2023-07-13T18:56:09;10.95;;;3.97;;
52043;SDS011;38053;53.100;6.078;2023-07-13T18:58:38;8.43;;;2.88;;
52043;SDS011;38053;53.100;6.078;2023-07-13T19:03:55;6.97;;;3.92;;
52043;SDS011;38053;53.100;6.078;2023-07-13T19:06:21;9.35;;;3.30;;
52043;SDS011;38053;53.100;6.078;2023-07-13T19:08:47;6.75;;;3.15;;
52043;SDS011;38053;53.100;6.078;2023-07-13T19:11:16;8.25;;;3.15;;
52043;SDS011;38053;53.100;6.078;2023-07-13T19:13:43;7.60;;;3.08;;
52043;SDS011;38053;53.100;6.078;2023-07-13T19:16:13;10.30;;;2.90;;
52043;SDS011;38053;53.100;6.078;2023-07-13T19:18:39;8.10;;;3.17;;
52043;SDS011;38053;53.100;6.078;2023-07-13T19:21:07;8.55;;;3.00;;
52043;SDS011;38053;53.100;6.078;2023-07-13T19:23:50;9.68;;;3.38;;
52043;SDS011;38053;53.100;6.078;2023-07-13T19:26:20;7.20;;;3.35;;
52043;SDS011;38053;53.100;6.078;2023-07-13T19:28:49;8.25;;;3.20;;
52043;SDS011;38053;53.100;6.078;2023-07-13T19:31:23;11.43;;;4.22;;
52043;SDS011;38053;53.100;6.078;2023-07-13T19:33:53;11.38;;;3.53;;
52043;SDS011;38053;53.100;6.078;2023-07-13T19:36:22;9.75;;;3.28;;
52043;SDS011;38053;53.100;6.078;2023-07-13T19:38:52;8.40;;;3.70;;
52043;SDS011;38053;53.100;6.078;2023-07-13T19:41:21;10.65;;;3.67;;
52043;SDS011;38053;53.100;6.078;2023-07-13T19:43:50;8.20;;;3.45;;
52043;SDS011;38053;53.100;6.078;2023-07-13T19:46:19;9.35;;;4.00;;
52043;SDS011;38053;53.100;6.078;2023-07-13T19:48:49;12.73;;;4.13;;
52043;SDS011;38053;53.100;6.078;2023-07-13T19:51:18;8.45;;;3.60;;
52043;SDS011;38053;53.100;6.078;2023-07-13T19:53:48;12.25;;;4.00;;
52043;SDS011;38053;53.100;6.078;2023-07-13T19:56:16;12.38;;;5.13;;
52043;SDS011;38053;53.100;6.078;2023-07-13T20:01:12;9.07;;;3.92;;
52043;SDS011;38053;53.100;6.078;2023-07-13T20:03:38;15.50;;;3.95;;
52043;SDS011;38053;53.100;6.078;2023-07-13T20:06:15;7.57;;;3.25;;
52043;SDS011;38053;53.100;6.078;2023-07-13T20:09:00;9.13;;;4.20;;
52043;SDS011;38053;53.100;6.078;2023-07-13T20:11:27;8.90;;;4.03;;
52043;SDS011;38053;53.100;6.078;2023-07-13T20:13:54;11.80;;;4.80;;
52043;SDS011;38053;53.100;6.078;2023-07-13T20:16:23;15.95;;;5.53;;
52043;SDS011;38053;53.100;6.078;2023-07-13T20:18:50;10.82;;;4.43;;
52043;SDS011;38053;53.100;6.078;2023-07-13T20:21:16;11.15;;;3.85;;
52043;SDS011;38053;53.100;6.078;2023-07-13T20:23:42;9.10;;;3.75;;
52043;SDS011;38053;53.100;6.078;2023-07-13T20:26:09;11.73;;;4.82;;
52043;SDS011;38053;53.100;6.078;2023-07-13T20:28:35;9.00;;;4.05;;
52043;SDS011;38053;53.100;6.078;2023-07-13T20:31:14;9.38;;;4.18;;
52043;SDS011;38053;53.100;6.078;2023-07-13T20:33:40;18.98;;;5.30;;
52043;SDS011;38053;53.100;6.078;2023-07-13T20:36:06;10.23;;;3.58;;
52043;SDS011;38053;53.100;6.078;2023-07-13T20:38:40;12.80;;;4.22;;
52043;SDS011;38053;53.100;6.078;2023-07-13T20:41:07;8.43;;;4.47;;
52043;SDS011;38053;53.100;6.078;2023-07-13T20:43:36;10.77;;;4.68;;
52043;SDS011;38053;53.100;6.078;2023-07-13T20:46:02;7.93;;;4.50;;
52043;SDS011;38053;53.100;6.078;2023-07-13T20:48:37;14.85;;;5.95;;
52043;SDS011;38053;53.100;6.078;2023-07-13T20:51:08;9.25;;;4.25;;
52043;SDS011;38053;53.100;6.078;2023-07-13T20:53:35;11.68;;;4.45;;
52043;SDS011;38053;53.100;6.078;2023-07-13T20:56:01;11.82;;;4.45;;
52043;SDS011;38053;53.100;6.078;2023-07-13T20:58:29;15.75;;;5.53;;
52043;SDS011;38053;53.100;6.078;2023-07-13T21:00:55;13.60;;;5.13;;
52043;SDS011;38053;53.100;6.078;2023-07-13T21:03:25;10.25;;;4.97;;
52043;SDS011;38053;53.100;6.078;2023-07-13T21:05:53;9.93;;;4.63;;
52043;SDS011;38053;53.100;6.078;2023-07-13T21:08:24;11.43;;;5.07;;
52043;SDS011;38053;53.100;6.078;2023-07-13T21:10:52;12.15;;;5.05;;
52043;SDS011;38053;53.100;6.078;2023-07-13T21:13:18;11.98;;;4.60;;
52043;SDS011;38053;53.100;6.078;2023-07-13T21:15:45;12.35;;;4.68;;
52043;SDS011;38053;53.100;6.078;2023-07-13T21:18:22;11.35;;;4.32;;
52043;SDS011;38053;53.100;6.078;2023-07-13T21:20:56;13.13;;;5.90;;
52043;SDS011;38053;53.100;6.078;2023-07-13T21:23:32;13.45;;;5.07;;
52043;SDS011;38053;53.100;6.078;2023-07-13T21:26:00;11.77;;;5.05;;
52043;SDS011;38053;53.100;6.078;2023-07-13T21:28:34;16.70;;;5.20;;
52043;SDS011;38053;53.100;6.078;2023-07-13T21:31:06;10.88;;;4.72;;
52043;SDS011;38053;53.100;6.078;2023-07-13T21:33:35;9.80;;;4.75;;
52043;SDS011;38053;53.100;6.078;2023-07-13T21:36:01;16.80;;;5.85;;
52043;SDS011;38053;53.100;6.078;2023-07-13T21:38:29;7.80;;;4.05;;
52043;SDS011;38053;53.100;6.078;2023-07-13T21:41:02;9.20;;;5.43;;
52043;SDS011;38053;53.100;6.078;2023-07-13T21:43:31;11.85;;;6.43;;
52043;SDS011;38053;53.100;6.078;2023-07-13T21:45:58;11.15;;;4.80;;
52043;SDS011;38053;53.100;6.078;2023-07-13T21:48:24;13.27;;;5.22;;
52043;SDS011;38053;53.100;6.078;2023-07-13T21:50:54;13.52;;;4.85;;
52043;SDS011;38053;53.100;6.078;2023-07-13T21:55:50;14.88;;;8.32;;
52043;SDS011;38053;53.100;6.078;2023-07-13T21:58:27;15.00;;;7.63;;
52043;SDS011;38053;53.100;6.078;2023-07-13T22:01:02;14.23;;;7.57;;
52043;SDS011;38053;53.100;6.078;2023-07-13T22:06:00;9.00;;;5.45;;
52043;SDS011;38053;53.100;6.078;2023-07-13T22:08:30;9.73;;;5.32;;
52043;SDS011;38053;53.100;6.078;2023-07-13T22:11:07;7.75;;;4.85;;
52043;SDS011;38053;53.100;6.078;2023-07-13T22:13:35;10.68;;;5.25;;
52043;SDS011;38053;53.100;6.078;2023-07-13T22:16:03;11.95;;;5.82;;
52043;SDS011;38053;53.100;6.078;2023-07-13T22:18:53;11.98;;;6.10;;
52043;SDS011;38053;53.100;6.078;2023-07-13T22:21:24;10.52;;;5.35;;
52043;SDS011;38053;53.100;6.078;2023-07-13T22:23:50;11.50;;;5.65;;
52043;SDS011;38053;53.100;6.078;2023-07-13T22:28:49;14.90;;;5.45;;
52043;SDS011;38053;53.100;6.078;2023-07-13T22:31:16;9.65;;;5.13;;
52043;SDS011;38053;53.100;6.078;2023-07-13T22:33:42;11.10;;;5.70;;
52043;SDS011;38053;53.100;6.078;2023-07-13T22:36:09;14.35;;;7.35;;
52043;SDS011;38053;53.100;6.078;2023-07-13T22:38:36;14.13;;;5.90;;
52043;SDS011;38053;53.100;6.078;2023-07-13T22:41:04;11.85;;;5.28;;
52043;SDS011;38053;53.100;6.078;2023-07-13T22:43:32;10.75;;;5.20;;
52043;SDS011;38053;53.100;6.078;2023-07-13T22:46:00;11.55;;;5.60;;
52043;SDS011;38053;53.100;6.078;2023-07-13T22:48:34;10.27;;;5.38;;
52043;SDS011;38053;53.100;6.078;2023-07-13T22:51:14;9.48;;;5.18;;
52043;SDS011;38053;53.100;6.078;2023-07-13T22:53:43;17.75;;;5.72;;
52043;SDS011;38053;53.100;6.078;2023-07-13T22:56:10;11.73;;;5.82;;
52043;SDS011;38053;53.100;6.078;2023-07-13T22:58:36;11.75;;;6.03;;
52043;SDS011;38053;53.100;6.078;2023-07-13T23:01:05;12.35;;;5.75;;
52043;SDS011;38053;53.100;6.078;2023-07-13T23:03:49;13.18;;;5.88;;
52043;SDS011;38053;53.100;6.078;2023-07-13T23:06:23;12.00;;;6.78;;
52043;SDS011;38053;53.100;6.078;2023-07-13T23:09:14;17.20;;;7.38;;
52043;SDS011;38053;53.100;6.078;2023-07-13T23:11:41;11.35;;;6.25;;
52043;SDS011;38053;53.100;6.078;2023-07-13T23:14:07;10.63;;;4.93;;
52043;SDS011;38053;53.100;6.078;2023-07-13T23:16:32;10.55;;;5.43;;
52043;SDS011;38053;53.100;6.078;2023-07-13T23:18:58;12.73;;;6.70;;
52043;SDS011;38053;53.100;6.078;2023-07-13T23:21:25;14.45;;;6.20;;
52043;SDS011;38053;53.100;6.078;2023-07-13T23:23:54;10.52;;;5.78;;
52043;SDS011;38053;53.100;6.078;2023-07-13T23:26:21;12.20;;;7.40;;
52043;SDS011;38053;53.100;6.078;2023-07-13T23:28:49;11.02;;;6.38;;
52043;SDS011;38053;53.100;6.078;2023-07-13T23:31:29;11.80;;;6.88;;
52043;SDS011;38053;53.100;6.078;2023-07-13T23:34:01;15.63;;;7.18;;
52043;SDS011;38053;53.100;6.078;2023-07-13T23:36:29;14.10;;;7.75;;
52043;SDS011;38053;53.100;6.078;2023-07-13T23:38:55;13.20;;;7.18;;
52043;SDS011;38053;53.100;6.078;2023-07-13T23:41:22;11.98;;;7.97;;
52043;SDS011;38053;53.100;6.078;2023-07-13T23:43:49;15.05;;;8.02;;
52043;SDS011;38053;53.100;6.078;2023-07-13T23:49:01;14.63;;;8.10;;
52043;SDS011;38053;53.100;6.078;2023-07-13T23:51:53;15.48;;;7.85;;
52043;SDS011;38053;53.100;6.078;2023-07-13T23:54:21;14.38;;;8.98;;
52043;SDS011;38053;53.100;6.078;2023-07-13T23:56:49;14.88;;;8.85;;
52043;SDS011;38053;53.100;6.078;2023-07-13T23:59:15;13.70;;;8.38;;
